Terminal Aerodrome Forecast
Issued by NWS

Home | Current Version | Previous Version | Graphics & Text | Print | Product List | Glossary On
Versions: 1 2 3 4 5 6 7 8 9 10 11 12 13 14
000
FTUS43 KBIS 281700
TAFDIK
TAF
KDIK 281734Z 2818/0118 32020KT P6SM OVC020
     FM282100 30015KT P6SM SCT020 OVC050
     FM011400 29015KT P6SM OVC020=

USA.gov is the U.S. government's official web portal to all federal, state and local government web resources and services.